createdAt,value
2019-04-04T00:00:25.185Z,26.77
2019-04-04T00:05:27.051Z,30.70
2019-04-04T00:10:28.980Z,28.13
2019-04-04T00:15:30.813Z,32.97
2019-04-04T00:20:32.857Z,32.17
2019-04-04T00:25:36.301Z,30.57
2019-04-04T00:30:38.296Z,34.70
2019-04-04T00:35:40.333Z,35.87
2019-04-04T00:40:42.524Z,34.07
2019-04-04T00:45:44.490Z,34.07
2019-04-04T00:50:46.325Z,29.53
2019-04-04T00:55:48.205Z,30.47
2019-04-04T01:00:50.110Z,32.87
2019-04-04T01:05:52.255Z,28.37
2019-04-04T01:10:54.113Z,28.37
2019-04-04T01:15:55.917Z,29.93
2019-04-04T01:20:57.840Z,34.37
2019-04-04T01:26:01.341Z,35.47
2019-04-04T01:31:03.940Z,37.50
2019-04-04T01:36:05.795Z,39.67
2019-04-04T01:41:07.635Z,32.37
2019-04-04T01:46:09.570Z,23.93
2019-04-04T01:51:11.404Z,19.97
2019-04-04T01:56:14.368Z,17.17
2019-04-04T02:01:17.035Z,16.03
2019-04-04T02:06:19.005Z,17.57
2019-04-04T02:11:20.929Z,21.37
2019-04-04T02:16:23.768Z,23.33
2019-04-04T02:21:28.472Z,25.83
2019-04-04T02:26:29.316Z,26.70
2019-04-04T02:31:35.029Z,25.97
2019-04-04T02:36:36.836Z,27.10
2019-04-04T02:41:38.751Z,27.73
2019-04-04T02:46:44.461Z,26.53
2019-04-04T02:51:44.620Z,27.20
2019-04-04T02:56:46.561Z,28.87
2019-04-04T03:01:48.634Z,25.03
2019-04-04T03:06:50.551Z,22.77
2019-04-04T03:11:54.111Z,23.40
2019-04-04T03:16:57.732Z,21.60
2019-04-04T03:22:00.934Z,23.47
2019-04-04T03:27:02.883Z,22.60
2019-04-04T03:32:04.706Z,22.97
2019-04-04T03:37:08.956Z,22.20
2019-04-04T03:42:10.276Z,21.50
2019-04-04T03:47:12.168Z,23.10
2019-04-04T03:52:14.087Z,21.97
2019-04-04T03:57:16.190Z,22.43
2019-04-04T04:02:18.741Z,22.63
2019-04-04T04:07:21.942Z,22.80
2019-04-04T04:12:23.785Z,25.43
2019-04-04T04:17:25.598Z,20.93
2019-04-04T04:22:27.403Z,19.87
2019-04-04T04:27:29.262Z,17.83
2019-04-04T04:32:31.161Z,18.20
2019-04-04T04:37:32.978Z,20.47
2019-04-04T04:42:34.809Z,14.50
2019-04-04T04:47:36.622Z,14.93
2019-04-04T04:52:38.494Z,15.80
2019-04-04T04:57:40.378Z,17.57
2019-04-04T05:02:42.309Z,14.80
2019-04-04T05:07:44.115Z,14.70
2019-04-04T05:12:45.950Z,13.77
2019-04-04T05:17:47.758Z,13.93
2019-04-04T05:22:50.588Z,13.37
2019-04-04T05:27:52.421Z,11.53
2019-04-04T05:32:56.392Z,14.60
2019-04-04T05:37:58.170Z,15.50
2019-04-04T05:43:00.115Z,14.10
2019-04-04T05:48:01.950Z,17.30
2019-04-04T05:53:04.841Z,15.33
2019-04-04T05:58:06.829Z,13.07
2019-04-04T06:03:08.660Z,14.80
2019-04-04T06:08:10.490Z,12.30
2019-04-04T06:13:12.304Z,13.20
2019-04-04T06:18:14.121Z,14.80
2019-04-04T06:23:15.972Z,14.00
2019-04-04T06:28:17.799Z,13.40
2019-04-04T06:33:19.663Z,14.37
2019-04-04T06:38:23.503Z,14.00
2019-04-04T06:43:25.192Z,14.43
2019-04-04T06:48:29.007Z,15.27
2019-04-04T06:53:30.780Z,17.90
2019-04-04T06:58:32.629Z,17.00
2019-04-04T07:03:34.484Z,19.43
2019-04-04T07:08:36.302Z,18.40
2019-04-04T07:13:42.741Z,18.23
2019-04-04T07:18:42.990Z,21.93
2019-04-04T07:23:45.588Z,19.80
2019-04-04T07:28:49.641Z,18.27
2019-04-04T07:33:51.202Z,19.53
2019-04-04T07:38:54.227Z,20.27
2019-04-04T07:43:58.520Z,18.83
2019-04-04T07:48:59.896Z,20.10
2019-04-04T07:54:01.963Z,19.37
2019-04-04T07:59:05.488Z,23.97
2019-04-04T08:04:07.439Z,25.23
2019-04-04T08:09:09.352Z,25.23
2019-04-04T08:14:11.290Z,27.17
2019-04-04T08:19:13.115Z,31.27
2019-04-04T08:24:15.144Z,32.53
2019-04-04T08:29:18.284Z,26.67
2019-04-04T08:34:20.121Z,31.30
2019-04-04T08:39:21.938Z,44.97
2019-04-04T08:44:24.808Z,38.13
2019-04-04T08:49:26.629Z,41.70
2019-04-04T08:54:28.436Z,40.97
2019-04-04T08:59:30.357Z,35.37
2019-04-04T09:04:32.426Z,35.90
2019-04-04T09:09:34.775Z,37.23
2019-04-04T09:14:36.890Z,42.63
2019-04-04T09:19:38.922Z,38.30
2019-04-04T09:24:40.747Z,34.90
2019-04-04T09:29:42.570Z,37.57
2019-04-04T09:34:44.541Z,36.47
2019-04-04T09:39:47.368Z,40.37
2019-04-04T09:44:50.384Z,36.40
2019-04-04T09:49:52.197Z,37.33
2019-04-04T09:54:54.053Z,36.73
2019-04-04T09:59:57.063Z,37.10
2019-04-04T10:04:59.301Z,33.93
2019-04-04T10:10:02.208Z,32.90
2019-04-04T10:15:06.052Z,32.47
2019-04-04T10:20:09.176Z,31.77
2019-04-04T10:25:11.395Z,31.80
2019-04-04T10:30:13.737Z,33.17
2019-04-04T10:35:15.605Z,32.50
2019-04-04T10:40:17.740Z,30.73
2019-04-04T10:45:19.605Z,35.23
2019-04-04T10:50:21.515Z,36.77
2019-04-04T10:55:23.437Z,39.60
2019-04-04T11:00:25.681Z,44.17
2019-04-04T11:05:27.522Z,46.77
2019-04-04T11:10:29.354Z,53.03
2019-04-04T11:15:31.305Z,48.77
2019-04-04T11:20:33.124Z,50.20
2019-04-04T11:25:35.050Z,51.43
2019-04-04T11:30:36.991Z,43.57
2019-04-04T11:35:38.843Z,39.80
2019-04-04T11:40:40.662Z,36.70
2019-04-04T11:45:42.529Z,36.23
2019-04-04T11:50:44.445Z,31.97
2019-04-04T11:55:46.279Z,29.23
2019-04-04T12:00:49.559Z,29.27
2019-04-04T12:05:51.431Z,28.37
2019-04-04T12:10:53.258Z,29.17
2019-04-04T12:15:55.118Z,28.37
2019-04-04T12:20:57.180Z,34.30
2019-04-04T12:25:59.133Z,37.63
2019-04-04T12:31:01.073Z,34.53
2019-04-04T12:36:02.935Z,35.20
2019-04-04T12:41:04.787Z,31.83
2019-04-04T12:46:06.870Z,32.13
2019-04-04T12:51:08.903Z,33.43
2019-04-04T12:56:10.755Z,35.37
2019-04-04T13:01:12.623Z,34.03
2019-04-04T13:06:14.565Z,36.07
2019-04-04T13:11:16.601Z,39.57
2019-04-04T13:16:18.472Z,35.23
2019-04-04T13:21:21.678Z,36.03
2019-04-04T13:26:23.619Z,36.13
2019-04-04T13:31:25.456Z,41.90
2019-04-04T13:36:27.683Z,84.33
2019-04-04T13:41:29.490Z,39.03
2019-04-04T13:46:31.510Z,34.53
2019-04-04T13:51:34.376Z,38.60
2019-04-04T13:56:36.210Z,35.30
2019-04-04T14:01:38.042Z,38.53
2019-04-04T14:06:39.954Z,41.03
2019-04-04T14:11:42.181Z,39.70
2019-04-04T14:16:44.134Z,40.50
2019-04-04T14:21:46.046Z,38.13
2019-04-04T14:26:47.871Z,39.30
2019-04-04T14:31:49.707Z,40.73
2019-04-04T14:36:51.602Z,40.70
2019-04-04T14:41:53.401Z,39.07
2019-04-04T14:46:56.259Z,40.00
2019-04-04T14:51:58.114Z,39.30
2019-04-04T14:57:00.060Z,39.43
2019-04-04T15:02:02.007Z,41.07
2019-04-04T15:07:03.953Z,43.10
2019-04-04T15:12:05.762Z,38.97
2019-04-04T15:17:07.588Z,44.37
2019-04-04T15:22:10.418Z,47.77
2019-04-04T15:27:12.350Z,45.50
2019-04-04T15:32:14.278Z,42.97
2019-04-04T15:37:16.120Z,47.53
2019-04-04T15:42:17.984Z,47.33
2019-04-04T15:47:19.820Z,46.70
2019-04-04T15:52:21.692Z,45.30
2019-04-04T15:57:23.550Z,47.97
2019-04-04T16:02:25.368Z,49.17
2019-04-04T16:07:28.014Z,47.27
2019-04-04T16:12:31.155Z,44.93
2019-04-04T16:17:32.991Z,47.47
2019-04-04T16:22:35.640Z,48.27
2019-04-04T16:27:38.581Z,50.10
2019-04-04T16:32:40.618Z,52.83
2019-04-04T16:37:42.611Z,48.07
2019-04-04T16:42:44.700Z,56.60
2019-04-04T16:47:46.625Z,51.43
2019-04-04T16:52:48.919Z,65.00
2019-04-04T16:57:50.943Z,51.03
2019-04-04T17:02:54.027Z,48.90
2019-04-04T17:07:55.887Z,54.07
2019-04-04T17:12:57.721Z,52.47
2019-04-04T17:18:00.040Z,49.77
2019-04-04T17:23:01.983Z,55.03
2019-04-04T17:28:04.498Z,57.87
2019-04-04T17:33:06.981Z,54.50
2019-04-04T17:38:08.903Z,54.37
2019-04-04T17:43:10.710Z,54.57
2019-04-04T17:48:12.857Z,57.67
2019-04-04T17:53:14.903Z,53.47
2019-04-04T17:58:18.390Z,53.13
2019-04-04T18:03:20.389Z,52.27
2019-04-04T18:08:22.224Z,54.57
2019-04-04T18:13:24.153Z,54.03
2019-04-04T18:18:26.091Z,53.27
2019-04-04T18:23:27.998Z,52.60
2019-04-04T18:28:29.844Z,52.20
2019-04-04T18:33:31.657Z,52.30
2019-04-04T18:38:33.605Z,52.97
2019-04-04T18:43:35.423Z,53.77
2019-04-04T18:48:37.347Z,46.47
2019-04-04T18:53:39.173Z,47.53
2019-04-04T18:58:41.139Z,51.63
2019-04-04T19:03:42.988Z,52.90
2019-04-04T19:08:44.841Z,53.73
2019-04-04T19:13:47.532Z,51.43
2019-04-04T19:18:49.371Z,51.33
2019-04-04T19:23:51.783Z,45.13
2019-04-04T19:28:53.755Z,52.03
2019-04-04T19:33:55.575Z,53.20
2019-04-04T19:38:57.450Z,58.80
2019-04-04T19:43:59.260Z,63.87
2019-04-04T19:49:01.120Z,59.17
2019-04-04T19:54:03.271Z,59.30
2019-04-04T19:59:06.157Z,61.97
2019-04-04T20:04:07.987Z,69.37
2019-04-04T20:09:09.910Z,70.17
2019-04-04T20:14:11.718Z,69.43
2019-04-04T20:19:13.533Z,76.20
2019-04-04T20:24:15.477Z,70.83
2019-04-04T20:29:17.429Z,71.30
2019-04-04T20:34:19.240Z,81.50
2019-04-04T20:39:21.079Z,88.10
2019-04-04T20:44:22.998Z,73.33
2019-04-04T20:49:24.824Z,83.43
2019-04-04T20:54:26.704Z,84.93
2019-04-04T20:59:28.535Z,92.50
2019-04-04T21:04:30.357Z,73.20
2019-04-04T21:09:32.189Z,93.03
2019-04-04T21:14:34.001Z,91.23
2019-04-04T21:19:35.857Z,93.53
2019-04-04T21:24:37.783Z,88.87
2019-04-04T21:29:40.886Z,98.47
2019-04-04T21:34:43.397Z,92.90
2019-04-04T21:39:45.250Z,93.40
2019-04-04T21:44:47.080Z,103.23
2019-04-04T21:49:49.009Z,98.80
2019-04-04T21:54:50.954Z,103.97
2019-04-04T21:59:53.059Z,109.97
2019-04-04T22:04:54.869Z,104.97
2019-04-04T22:09:56.689Z,100.13
2019-04-04T22:14:58.517Z,101.60
2019-04-04T22:20:00.561Z,105.27
2019-04-04T22:25:02.606Z,108.20
2019-04-04T22:30:05.224Z,117.97
2019-04-04T22:35:07.255Z,106.97
2019-04-04T22:40:09.508Z,105.27
2019-04-04T22:45:11.817Z,106.27
2019-04-04T22:50:13.984Z,96.30
2019-04-04T22:55:15.898Z,100.90
2019-04-04T23:00:18.035Z,100.17
2019-04-04T23:05:19.895Z,97.60
2019-04-04T23:10:21.753Z,96.57
2019-04-04T23:15:23.584Z,99.10
2019-04-04T23:20:25.464Z,101.97
2019-04-04T23:25:27.309Z,106.20
2019-04-04T23:30:29.130Z,101.43
2019-04-04T23:35:31.254Z,101.93
2019-04-04T23:40:33.489Z,96.47
2019-04-04T23:45:35.396Z,94.43
2019-04-04T23:50:37.263Z,85.63
2019-04-04T23:55:39.125Z,86.87
